Time;durP1;ratioP1;P1;durP2;ratioP2;P2;SDS_P1;SDS_P2;PMS_P1;PMS_P2;Temp;Humidity;BMP_temperature;BMP_pressure;BME280_temperature;BME280_humidity;BME280_pressure;Samples;Min_cycle;Max_cycle;Signal;HPM_P1;HPM_P2
2021/01/04 00:00:17;;;;;;;;;;;24.90;99.80;;;;;;5033397;28;19916;-80
2021/01/04 00:02:55;;;;;;;;;;;25.00;99.40;;;;;;5032636;28;19940;-81
2021/01/04 00:05:33;;;;;;;;;;;25.10;98.70;;;;;;5032723;28;20391;-85
2021/01/04 00:08:21;;;;;;;;;;;25.10;98.60;;;;;;5035440;28;19929;-84
2021/01/04 00:10:57;;;;;;;;;;;25.00;98.20;;;;;;5035395;28;20346;-85
2021/01/04 00:13:34;;;;;;;;;;;25.00;98.00;;;;;;5030566;28;20492;-86
2021/01/04 00:16:12;;;;;;;;;;;25.10;98.10;;;;;;5029856;28;20387;-86
2021/01/04 00:18:42;;;;;;;;;;;25.10;98.10;;;;;;5038818;28;19920;-85
2021/01/04 00:21:27;;;;;;;;;;;25.10;98.30;;;;;;5060378;28;19958;-87
2021/01/04 00:24:12;;;;;;;;;;;25.20;98.50;;;;;;5054037;28;19919;-86
2021/01/04 00:26:46;;;;;;;;;;;25.30;98.20;;;;;;5045620;28;20614;-83
2021/01/04 00:29:12;;;;;;;;;;;25.40;98.10;;;;;;5065727;28;19912;-84
2021/01/04 00:31:43;;;;;;;;;;;25.50;98.60;;;;;;5057168;28;19948;-82
2021/01/04 00:34:18;;;;;;;;;;;25.70;97.70;;;;;;5052830;28;19966;-88
2021/01/04 00:37:22;;;;;;;;;;;25.80;97.70;;;;;;5047383;28;20004;-86
2021/01/04 00:40:09;;;;;;;;;;;25.90;97.20;;;;;;5012499;28;19908;-88
2021/01/04 00:42:58;;;;;;;;;;;26.10;96.70;;;;;;5026954;28;19947;-88
2021/01/04 00:45:31;;;;;;;;;;;26.30;96.00;;;;;;5043624;28;19916;-88
2021/01/04 00:48:00;;;;;;;;;;;26.30;95.20;;;;;;5041407;28;20071;-89
2021/01/04 00:50:39;;;;;;;;;;;26.30;95.60;;;;;;5032579;28;19909;-88
2021/01/04 00:53:18;;;;;;;;;;;26.30;95.60;;;;;;5047164;28;20145;-88
2021/01/04 00:56:06;;;;;;;;;;;26.10;95.60;;;;;;5042852;28;19964;-88
2021/01/04 00:58:36;;;;;;;;;;;26.00;96.10;;;;;;5042824;28;19921;-86
2021/01/04 01:01:14;;;;;;;;;;;25.70;97.00;;;;;;5046908;28;20403;-89
2021/01/04 01:03:51;;;;;;;;;;;25.60;97.50;;;;;;5032065;28;20375;-87
2021/01/04 01:06:21;;;;;;;;;;;25.60;97.70;;;;;;5028388;28;20027;-88
2021/01/04 01:08:52;;;;;;;;;;;25.50;98.10;;;;;;5041780;28;19960;-88
2021/01/04 01:11:22;;;;;;;;;;;25.40;98.70;;;;;;5028289;28;19935;-88
2021/01/04 01:13:54;;;;;;;;;;;25.40;98.90;;;;;;5044834;28;20109;-89
2021/01/04 01:16:27;;;;;;;;;;;25.40;99.00;;;;;;5049669;28;20464;-88
2021/01/04 01:18:57;;;;;;;;;;;25.40;98.90;;;;;;5035202;28;20410;-87
2021/01/04 01:21:27;;;;;;;;;;;25.50;98.70;;;;;;5029240;28;19996;-87
2021/01/04 01:23:55;;;;;;;;;;;25.50;98.50;;;;;;5031854;28;20314;-87
2021/01/04 01:26:22;;;;;;;;;;;25.60;98.50;;;;;;5041017;28;19917;-88
2021/01/04 01:29:07;;;;;;;;;;;25.60;98.50;;;;;;5031360;28;19948;-84
2021/01/04 01:31:44;;;;;;;;;;;25.60;98.70;;;;;;5028697;28;19913;-88
2021/01/04 01:34:19;;;;;;;;;;;25.60;98.50;;;;;;5047397;28;19997;-87
2021/01/04 01:36:49;;;;;;;;;;;25.80;98.80;;;;;;5040068;28;19924;-87
2021/01/04 01:39:21;;;;;;;;;;;25.90;98.30;;;;;;5029912;28;19921;-87
2021/01/04 01:42:00;;;;;;;;;;;25.90;98.50;;;;;;5024370;28;19920;-87
2021/01/04 01:44:27;;;;;;;;;;;26.00;98.30;;;;;;5041332;28;19964;-89
2021/01/04 01:47:13;;;;;;;;;;;26.10;97.00;;;;;;5034526;28;19913;-86
2021/01/04 01:49:47;;;;;;;;;;;26.20;96.40;;;;;;5030209;28;20011;-88
2021/01/04 01:52:18;;;;;;;;;;;26.30;95.80;;;;;;5029866;28;19928;-86
2021/01/04 01:54:44;;;;;;;;;;;26.30;95.20;;;;;;5033900;28;19915;-87
2021/01/04 01:57:11;;;;;;;;;;;26.40;94.70;;;;;;5035614;28;19936;-86
2021/01/04 01:59:44;;;;;;;;;;;26.40;94.60;;;;;;5039596;28;19908;-87
2021/01/04 02:02:11;;;;;;;;;;;26.30;95.10;;;;;;5037953;28;20244;-88
2021/01/04 02:04:49;;;;;;;;;;;26.30;95.10;;;;;;5046701;28;20804;-87
2021/01/04 02:07:24;;;;;;;;;;;26.20;95.30;;;;;;5025853;28;20289;-87
2021/01/04 02:09:53;;;;;;;;;;;26.30;95.50;;;;;;5027821;28;19921;-89
2021/01/04 02:12:47;;;;;;;;;;;26.20;95.60;;;;;;5043929;28;19913;-87
2021/01/04 02:15:17;;;;;;;;;;;26.20;95.70;;;;;;5001402;28;19920;-88
2021/01/04 02:18:02;;;;;;;;;;;26.30;96.00;;;;;;5050009;28;20320;-89
2021/01/04 02:20:44;;;;;;;;;;;26.30;95.30;;;;;;5031162;28;19916;-87
2021/01/04 02:23:10;;;;;;;;;;;26.30;95.50;;;;;;5037841;28;19970;-86
2021/01/04 02:25:39;;;;;;;;;;;26.30;95.50;;;;;;5030050;28;19990;-86
2021/01/04 02:28:09;;;;;;;;;;;26.30;95.90;;;;;;5045137;28;19936;-86
2021/01/04 02:30:37;;;;;;;;;;;26.30;96.20;;;;;;5035993;28;19913;-85
2021/01/04 02:33:05;;;;;;;;;;;26.20;96.30;;;;;;5036949;28;19960;-90
2021/01/04 02:35:36;;;;;;;;;;;26.10;96.10;;;;;;5031614;28;20016;-85
2021/01/04 02:38:03;;;;;;;;;;;26.20;96.30;;;;;;5041129;28;19920;-85
2021/01/04 02:40:30;;;;;;;;;;;26.20;96.30;;;;;;5050988;28;20300;-86
2021/01/04 02:42:57;;;;;;;;;;;26.20;96.40;;;;;;5032343;28;19915;-86
2021/01/04 02:45:26;;;;;;;;;;;26.20;94.60;;;;;;5032819;28;19955;-85
2021/01/04 02:48:14;;;;;;;;;;;26.30;94.20;;;;;;5041417;28;19929;-85
2021/01/04 02:50:47;;;;;;;;;;;26.30;94.20;;;;;;5031479;28;19921;-85
2021/01/04 02:53:26;;;;;;;;;;;26.40;94.00;;;;;;5036812;28;20364;-84
2021/01/04 02:55:54;;;;;;;;;;;26.40;94.10;;;;;;5031640;28;19956;-87
2021/01/04 02:58:43;;;;;;;;;;;26.40;94.20;;;;;;5041135;28;19943;-86
2021/01/04 03:01:22;;;;;;;;;;;26.40;94.20;;;;;;5052827;28;19955;-85
2021/01/04 03:03:49;;;;;;;;;;;26.50;93.90;;;;;;5043169;28;20275;-85
2021/01/04 03:06:19;;;;;;;;;;;26.50;93.60;;;;;;5046307;28;19917;-86
2021/01/04 03:08:46;;;;;;;;;;;26.40;93.90;;;;;;5039799;28;20203;-84
2021/01/04 03:11:17;;;;;;;;;;;26.40;94.10;;;;;;5031872;28;19909;-86
2021/01/04 03:14:01;;;;;;;;;;;26.30;93.70;;;;;;5038906;28;19912;-84
2021/01/04 03:16:34;;;;;;;;;;;26.30;93.30;;;;;;5045755;28;19913;-86
2021/01/04 03:19:09;;;;;;;;;;;26.20;93.40;;;;;;5050984;28;20324;-85
2021/01/04 03:21:36;;;;;;;;;;;26.20;93.60;;;;;;5052813;28;20354;-83
2021/01/04 03:24:05;;;;;;;;;;;26.10;93.40;;;;;;5051986;28;19917;-83
2021/01/04 03:26:44;;;;;;;;;;;26.10;94.00;;;;;;5041285;28;19913;-84
2021/01/04 03:29:14;;;;;;;;;;;26.10;94.20;;;;;;5044255;28;19909;-87
2021/01/04 03:31:41;;;;;;;;;;;26.10;94.30;;;;;;5031494;28;20386;-84
2021/01/04 03:34:08;;;;;;;;;;;26.10;94.20;;;;;;5031036;28;19917;-85
2021/01/04 03:36:35;;;;;;;;;;;26.10;94.30;;;;;;5025114;28;19928;-86
2021/01/04 03:42:20;;;;;;;;;;;;;;;;;;;;;
2021/01/04 03:45:23;;;;;;;;;;;26.00;94.30;;;;;;5062399;28;20346;-86
2021/01/04 03:48:01;;;;;;;;;;;;;;;;;;;;;
2021/01/04 03:50:51;;;;;;;;;;;;;;;;;;;;;
2021/01/04 04:08:28;;;;;;;;;;;26.30;94.90;;;;;;5038264;28;19941;-83
2021/01/04 04:10:55;;;;;;;;;;;26.30;94.80;;;;;;5030508;28;19920;-85
2021/01/04 04:13:22;;;;;;;;;;;26.20;95.40;;;;;;5045365;28;19913;-88
2021/01/04 04:15:52;;;;;;;;;;;26.10;95.40;;;;;;5042582;28;19988;-88
2021/01/04 04:18:19;;;;;;;;;;;26.00;95.30;;;;;;5037403;28;19917;-88
2021/01/04 04:20:46;;;;;;;;;;;25.90;95.30;;;;;;5042576;28;19947;-87
2021/01/04 04:23:13;;;;;;;;;;;25.90;96.10;;;;;;5026314;28;19939;-87
2021/01/04 04:25:39;;;;;;;;;;;26.00;95.70;;;;;;5050858;28;19999;-89
2021/01/04 04:28:06;;;;;;;;;;;25.90;96.20;;;;;;5037931;28;20048;-85
2021/01/04 04:30:34;;;;;;;;;;;25.90;96.30;;;;;;5023906;28;19913;-88
2021/01/04 04:33:01;;;;;;;;;;;25.80;96.30;;;;;;5040190;28;19917;-89
2021/01/04 04:35:28;;;;;;;;;;;25.80;96.80;;;;;;5028973;28;19917;-87
2021/01/04 04:37:55;;;;;;;;;;;25.70;96.80;;;;;;5034316;28;19912;-88
2021/01/04 04:40:27;;;;;;;;;;;25.60;96.60;;;;;;5030690;28;20027;-89
2021/01/04 04:42:58;;;;;;;;;;;25.50;96.70;;;;;;5026563;28;19917;-89
2021/01/04 04:45:25;;;;;;;;;;;25.60;96.70;;;;;;5037791;28;21089;-87
2021/01/04 04:48:07;;;;;;;;;;;25.50;97.70;;;;;;5043405;28;19917;-89
2021/01/04 04:50:55;;;;;;;;;;;25.60;96.50;;;;;;5037623;28;20261;-87
2021/01/04 04:53:21;;;;;;;;;;;25.50;97.80;;;;;;5044353;28;19924;-87
2021/01/04 04:55:54;;;;;;;;;;;25.50;98.60;;;;;;5041413;28;19916;-88
2021/01/04 04:58:27;;;;;;;;;;;25.40;98.70;;;;;;5027686;28;20008;-86
2021/01/04 05:01:09;;;;;;;;;;;25.40;99.00;;;;;;5033612;28;19909;-89
2021/01/04 05:04:03;;;;;;;;;;;25.50;99.10;;;;;;5054768;28;19921;-87
2021/01/04 05:06:36;;;;;;;;;;;25.60;98.80;;;;;;5047009;28;19917;-91
2021/01/04 05:09:11;;;;;;;;;;;25.70;99.00;;;;;;5037318;28;19925;-91
2021/01/04 05:11:40;;;;;;;;;;;25.70;99.40;;;;;;5038221;28;20326;-90
2021/01/04 05:14:17;;;;;;;;;;;25.70;99.90;;;;;;5038969;28;22246;-89
2021/01/04 05:16:56;;;;;;;;;;;25.60;99.90;;;;;;5040628;28;19988;-88
2021/01/04 05:19:49;;;;;;;;;;;25.40;99.90;;;;;;5044404;28;19967;-87
2021/01/04 05:22:19;;;;;;;;;;;25.20;99.90;;;;;;5025384;28;20299;-87
2021/01/04 05:25:09;;;;;;;;;;;25.10;99.90;;;;;;5038362;28;19920;-87
2021/01/04 05:28:01;;;;;;;;;;;24.70;99.90;;;;;;5027146;28;19924;-88
2021/01/04 05:30:43;;;;;;;;;;;23.60;99.90;;;;;;5052397;28;19909;-87
2021/01/04 05:33:28;;;;;;;;;;;22.60;99.90;;;;;;5033593;28;20386;-87
2021/01/04 05:35:59;;;;;;;;;;;21.80;99.90;;;;;;5047137;28;19912;-88
2021/01/04 05:47:40;;;;;;;;;;;19.80;99.90;;;;;;4987849;28;19928;-83
2021/01/04 05:50:44;;;;;;;;;;;19.60;99.90;;;;;;5023686;28;20438;-82
2021/01/04 05:53:11;;;;;;;;;;;19.50;99.90;;;;;;4972001;28;20463;-86
2021/01/04 05:55:38;;;;;;;;;;;19.50;99.90;;;;;;4983882;28;19910;-84
2021/01/04 05:58:18;;;;;;;;;;;19.50;99.90;;;;;;4992007;28;19984;-82
2021/01/04 06:00:45;;;;;;;;;;;19.40;99.90;;;;;;5013040;28;20632;-83
2021/01/04 06:03:22;;;;;;;;;;;19.50;99.90;;;;;;5014169;28;19917;-80
2021/01/04 06:05:50;;;;;;;;;;;19.60;99.90;;;;;;5013686;28;19916;-85
2021/01/04 06:08:21;;;;;;;;;;;19.60;99.90;;;;;;5031750;28;20402;-86
2021/01/04 06:10:48;;;;;;;;;;;19.60;99.90;;;;;;5012807;28;19936;-83
2021/01/04 06:13:16;;;;;;;;;;;19.60;99.90;;;;;;5014975;28;19980;-86
2021/01/04 06:15:43;;;;;;;;;;;19.60;99.90;;;;;;5018129;28;19925;-85
2021/01/04 06:18:10;;;;;;;;;;;19.50;99.90;;;;;;5024759;28;19909;-84
2021/01/04 06:20:59;;;;;;;;;;;19.50;99.90;;;;;;5004584;28;19913;-84
2021/01/04 06:23:30;;;;;;;;;;;19.60;99.90;;;;;;5011466;28;19916;-83
2021/01/04 06:25:59;;;;;;;;;;;19.50;99.90;;;;;;5030295;28;19910;-85
2021/01/04 06:28:28;;;;;;;;;;;19.50;99.90;;;;;;5032014;28;20384;-84
2021/01/04 06:31:02;;;;;;;;;;;19.70;99.90;;;;;;5032055;28;19916;-84
2021/01/04 06:33:31;;;;;;;;;;;19.80;99.90;;;;;;5014355;28;19909;-84
2021/01/04 06:36:04;;;;;;;;;;;19.90;99.90;;;;;;5007610;28;19956;-84
2021/01/04 06:38:36;;;;;;;;;;;20.20;99.90;;;;;;5031249;28;19908;-84
2021/01/04 06:41:14;;;;;;;;;;;20.60;99.90;;;;;;5019201;28;20556;-84
2021/01/04 06:43:41;;;;;;;;;;;20.90;99.90;;;;;;5039508;28;21398;-83
2021/01/04 06:46:13;;;;;;;;;;;21.00;99.90;;;;;;5024178;28;19929;-83
2021/01/04 06:48:56;;;;;;;;;;;20.90;99.90;;;;;;5013814;28;19955;-84
2021/01/04 06:51:33;;;;;;;;;;;21.00;99.90;;;;;;5009311;28;20099;-81
2021/01/04 06:54:24;;;;;;;;;;;20.90;99.90;;;;;;5015951;28;19920;-84
2021/01/04 06:57:12;;;;;;;;;;;21.00;99.90;;;;;;4983746;28;19924;-85
2021/01/04 06:59:42;;;;;;;;;;;20.90;99.90;;;;;;5005039;28;19913;-82
2021/01/04 07:02:18;;;;;;;;;;;20.90;99.90;;;;;;5029730;28;20374;-85
2021/01/04 07:04:44;;;;;;;;;;;20.90;99.90;;;;;;5022626;28;19925;-82
2021/01/04 07:07:14;;;;;;;;;;;20.90;99.90;;;;;;5030568;28;20012;-83
2021/01/04 07:09:44;;;;;;;;;;;20.90;99.90;;;;;;5023979;28;19909;-82
2021/01/04 07:12:18;;;;;;;;;;;20.90;99.90;;;;;;5036192;28;19912;-83
2021/01/04 07:14:58;;;;;;;;;;;20.90;99.90;;;;;;5028571;28;19924;-83
2021/01/04 07:17:32;;;;;;;;;;;20.90;99.90;;;;;;5024632;28;20441;-83
2021/01/04 07:20:04;;;;;;;;;;;21.00;99.90;;;;;;5023847;28;19913;-83
2021/01/04 07:22:31;;;;;;;;;;;21.00;99.90;;;;;;5019334;28;19913;-85
2021/01/04 07:25:04;;;;;;;;;;;20.90;99.90;;;;;;5016117;28;19971;-87
2021/01/04 07:27:56;;;;;;;;;;;20.90;99.90;;;;;;5010142;28;20538;-83
2021/01/04 07:30:41;;;;;;;;;;;21.00;99.90;;;;;;4999898;28;20307;-82
2021/01/04 07:33:31;;;;;;;;;;;21.00;99.90;;;;;;5028383;28;20019;-84
2021/01/04 07:36:15;;;;;;;;;;;21.00;99.90;;;;;;5016535;28;19917;-85
2021/01/04 07:38:50;;;;;;;;;;;21.00;99.90;;;;;;5038583;28;20286;-85
2021/01/04 07:41:24;;;;;;;;;;;21.00;99.90;;;;;;5032158;28;20274;-84
2021/01/04 07:43:54;;;;;;;;;;;21.00;99.90;;;;;;5023415;28;20244;-83
2021/01/04 07:46:29;;;;;;;;;;;21.00;99.90;;;;;;5011878;28;20033;-84
2021/01/04 07:49:14;;;;;;;;;;;21.00;99.90;;;;;;5030619;28;19960;-84
2021/01/04 07:51:53;;;;;;;;;;;21.00;99.90;;;;;;5036232;28;19984;-84
2021/01/04 07:54:20;;;;;;;;;;;21.00;99.90;;;;;;5020231;28;19917;-83
2021/01/04 07:57:07;;;;;;;;;;;21.00;99.90;;;;;;5020694;28;19920;-84
2021/01/04 07:59:43;;;;;;;;;;;21.00;99.90;;;;;;5028940;28;19943;-83
2021/01/04 08:02:28;;;;;;;;;;;21.00;99.90;;;;;;5028290;28;19975;-85
2021/01/04 08:04:54;;;;;;;;;;;21.00;99.90;;;;;;5031209;28;19914;-86
2021/01/04 08:07:38;;;;;;;;;;;20.90;99.90;;;;;;5035352;28;19917;-82
2021/01/04 08:10:04;;;;;;;;;;;20.90;99.90;;;;;;5038513;28;20264;-86
2021/01/04 08:12:34;;;;;;;;;;;21.00;99.90;;;;;;5033807;28;19913;-84
2021/01/04 08:15:07;;;;;;;;;;;21.00;99.90;;;;;;5016452;28;20051;-83
2021/01/04 08:17:36;;;;;;;;;;;20.90;99.90;;;;;;5041887;28;19961;-83
2021/01/04 08:20:05;;;;;;;;;;;21.00;99.90;;;;;;5059651;28;19917;-84
2021/01/04 08:22:50;;;;;;;;;;;20.90;99.90;;;;;;5023668;28;19913;-85
2021/01/04 08:25:37;;;;;;;;;;;21.00;99.90;;;;;;5023934;28;19917;-85
2021/01/04 08:28:22;;;;;;;;;;;20.90;99.90;;;;;;4979466;28;19925;-84
2021/01/04 08:31:16;;;;;;;;;;;20.90;99.90;;;;;;5024323;28;20012;-85
2021/01/04 08:34:06;;;;;;;;;;;20.80;99.90;;;;;;4996070;28;20007;-84
2021/01/04 08:36:49;;;;;;;;;;;20.70;99.90;;;;;;5031926;28;20360;-84
2021/01/04 08:39:16;;;;;;;;;;;20.60;99.90;;;;;;5037838;28;19915;-87
2021/01/04 08:41:43;;;;;;;;;;;20.60;99.90;;;;;;5035147;28;20493;-83
2021/01/04 08:44:11;;;;;;;;;;;20.50;99.90;;;;;;5024446;28;19917;-84
2021/01/04 08:46:38;;;;;;;;;;;20.50;99.90;;;;;;5017263;28;20543;-84
2021/01/04 08:49:27;;;;;;;;;;;20.60;99.90;;;;;;5018212;28;19974;-83
2021/01/04 08:51:56;;;;;;;;;;;20.60;99.90;;;;;;5015064;28;19917;-82
2021/01/04 08:54:25;;;;;;;;;;;20.60;99.90;;;;;;5040334;28;19921;-82
2021/01/04 08:57:12;;;;;;;;;;;20.70;99.90;;;;;;5036331;28;20374;-86
2021/01/04 08:59:51;;;;;;;;;;;20.70;99.90;;;;;;5042934;28;19956;-83
2021/01/04 09:02:17;;;;;;;;;;;20.80;99.90;;;;;;5027415;28;19985;-81
2021/01/04 09:04:44;;;;;;;;;;;20.80;99.90;;;;;;5027742;28;19913;-80
2021/01/04 09:07:21;;;;;;;;;;;20.80;99.90;;;;;;5024364;28;19990;-84
2021/01/04 09:10:01;;;;;;;;;;;20.90;99.90;;;;;;5032714;28;20007;-82
2021/01/04 09:12:42;;;;;;;;;;;20.90;99.90;;;;;;5022780;28;20002;-88
2021/01/04 09:15:09;;;;;;;;;;;20.90;99.90;;;;;;5039855;28;20363;-83
2021/01/04 09:17:35;;;;;;;;;;;21.00;99.90;;;;;;5041156;28;19921;-86
2021/01/04 09:20:08;;;;;;;;;;;21.00;99.90;;;;;;5041084;28;19921;-86
2021/01/04 09:22:37;;;;;;;;;;;21.00;99.90;;;;;;5013922;28;19920;-84
2021/01/04 09:25:05;;;;;;;;;;;21.00;99.90;;;;;;5035666;28;19921;-84
2021/01/04 09:27:37;;;;;;;;;;;21.00;99.90;;;;;;5016690;28;19928;-82
2021/01/04 09:30:09;;;;;;;;;;;20.90;99.90;;;;;;5035765;28;20367;-85
2021/01/04 09:32:40;;;;;;;;;;;20.90;99.90;;;;;;5031278;28;19913;-85
2021/01/04 09:35:08;;;;;;;;;;;20.90;99.90;;;;;;5024426;28;20378;-81
2021/01/04 09:37:36;;;;;;;;;;;20.90;99.90;;;;;;5029060;28;19921;-85
2021/01/04 09:40:17;;;;;;;;;;;20.80;99.90;;;;;;5020519;28;19928;-85
2021/01/04 09:42:44;;;;;;;;;;;20.90;99.90;;;;;;5020838;28;20007;-85
2021/01/04 09:45:15;;;;;;;;;;;20.90;99.90;;;;;;5011619;28;19925;-86
2021/01/04 09:47:47;;;;;;;;;;;20.80;99.90;;;;;;5026670;28;19928;-86
2021/01/04 09:50:42;;;;;;;;;;;20.80;99.90;;;;;;5020433;28;19917;-82
2021/01/04 09:53:09;;;;;;;;;;;20.80;99.90;;;;;;5017438;28;19909;-87
2021/01/04 09:55:39;;;;;;;;;;;20.80;99.90;;;;;;5050850;28;19915;-84
2021/01/04 09:58:06;;;;;;;;;;;20.70;99.90;;;;;;5037098;28;20259;-85
2021/01/04 10:00:34;;;;;;;;;;;20.70;99.90;;;;;;5022495;28;19921;-84
2021/01/04 10:03:01;;;;;;;;;;;20.70;99.90;;;;;;5024587;28;19917;-83
2021/01/04 10:05:32;;;;;;;;;;;20.70;99.90;;;;;;5030163;28;19975;-85
2021/01/04 10:07:59;;;;;;;;;;;20.70;99.90;;;;;;5033397;28;20031;-85
2021/01/04 10:10:48;;;;;;;;;;;;;;;;;;;;;
2021/01/04 10:13:14;;;;;;;;;;;20.70;99.90;;;;;;5027837;28;20007;-87
2021/01/04 10:15:42;;;;;;;;;;;20.70;99.90;;;;;;5021166;28;19909;-88
2021/01/04 10:18:28;;;;;;;;;;;20.70;99.90;;;;;;5031128;28;19917;-80
2021/01/04 10:21:00;;;;;;;;;;;20.60;99.90;;;;;;5021585;28;19919;-82
2021/01/04 10:23:48;;;;;;;;;;;20.50;99.90;;;;;;5018831;28;19917;-80
2021/01/04 10:26:21;;;;;;;;;;;20.50;99.90;;;;;;5032352;28;19918;-82
2021/01/04 10:28:52;;;;;;;;;;;20.50;99.90;;;;;;5035461;28;19948;-84
2021/01/04 10:31:28;;;;;;;;;;;20.50;99.90;;;;;;5016131;28;19909;-88
2021/01/04 10:34:06;;;;;;;;;;;20.50;99.90;;;;;;5011007;28;20353;-87
2021/01/04 10:36:35;;;;;;;;;;;20.50;99.90;;;;;;5029184;28;19960;-86
2021/01/04 10:39:10;;;;;;;;;;;20.50;99.90;;;;;;5036498;28;19921;-87
2021/01/04 10:41:41;;;;;;;;;;;20.60;99.90;;;;;;5039799;28;19920;-87
2021/01/04 10:44:12;;;;;;;;;;;20.60;99.90;;;;;;5018584;28;19917;-81
2021/01/04 10:46:45;;;;;;;;;;;20.60;99.90;;;;;;5034455;28;19929;-83
2021/01/04 10:49:32;;;;;;;;;;;20.70;99.90;;;;;;5030395;28;19925;-83
2021/01/04 10:51:59;;;;;;;;;;;20.70;99.90;;;;;;5015268;28;19928;-83
2021/01/04 10:54:46;;;;;;;;;;;20.70;99.90;;;;;;5032615;28;19917;-84
2021/01/04 10:57:16;;;;;;;;;;;20.70;99.90;;;;;;5027774;28;19925;-83
2021/01/04 11:00:17;;;;;;;;;;;20.70;99.90;;;;;;5031276;28;19913;-82
2021/01/04 11:02:46;;;;;;;;;;;20.70;99.90;;;;;;5026040;28;20437;-81
2021/01/04 11:05:16;;;;;;;;;;;20.70;99.90;;;;;;5027484;28;20042;-83
2021/01/04 11:07:43;;;;;;;;;;;20.70;99.90;;;;;;5006658;28;20728;-82
2021/01/04 11:10:24;;;;;;;;;;;20.70;99.90;;;;;;5014095;28;19924;-83
2021/01/04 11:12:52;;;;;;;;;;;20.70;99.90;;;;;;5019871;28;20357;-85
2021/01/04 11:15:27;;;;;;;;;;;20.80;99.90;;;;;;5025436;28;19917;-85
2021/01/04 11:18:15;;;;;;;;;;;20.80;99.90;;;;;;5030968;28;19913;-84
2021/01/04 11:20:45;;;;;;;;;;;20.70;99.90;;;;;;5017438;28;19913;-83
2021/01/04 11:23:13;;;;;;;;;;;20.80;99.90;;;;;;5034358;28;19920;-84
2021/01/04 11:25:41;;;;;;;;;;;20.80;99.90;;;;;;5014917;28;19913;-84
2021/01/04 11:28:12;;;;;;;;;;;20.70;99.90;;;;;;5015014;28;19929;-84
2021/01/04 11:30:42;;;;;;;;;;;20.70;99.90;;;;;;5023486;28;20036;-85
2021/01/04 11:33:14;;;;;;;;;;;20.80;99.90;;;;;;5027663;28;20070;-84
2021/01/04 11:35:41;;;;;;;;;;;20.70;99.90;;;;;;5013826;28;19913;-84
2021/01/04 11:38:09;;;;;;;;;;;20.70;99.90;;;;;;5040028;28;19928;-82
2021/01/04 11:40:36;;;;;;;;;;;20.70;99.90;;;;;;5049577;28;19959;-84
2021/01/04 11:43:03;;;;;;;;;;;20.70;99.90;;;;;;5042982;28;19991;-84
2021/01/04 11:45:30;;;;;;;;;;;20.70;99.90;;;;;;5034114;28;19920;-84
2021/01/04 11:47:57;;;;;;;;;;;20.70;99.90;;;;;;5034225;28;19936;-83
2021/01/04 11:50:24;;;;;;;;;;;20.70;99.90;;;;;;5033642;28;19913;-85
2021/01/04 11:52:50;;;;;;;;;;;20.70;99.90;;;;;;5033059;28;19917;-86
2021/01/04 11:55:17;;;;;;;;;;;20.80;99.90;;;;;;5033643;28;19978;-86
2021/01/04 11:57:44;;;;;;;;;;;20.80;99.90;;;;;;5040448;28;19912;-86
2021/01/04 12:00:14;;;;;;;;;;;20.90;99.90;;;;;;5034939;28;20395;-86
2021/01/04 12:02:41;;;;;;;;;;;20.80;99.90;;;;;;5028256;28;19960;-86
2021/01/04 12:05:09;;;;;;;;;;;20.80;99.90;;;;;;5040207;28;19924;-86
2021/01/04 12:07:35;;;;;;;;;;;20.90;99.90;;;;;;4998833;28;19924;-84
2021/01/04 12:10:03;;;;;;;;;;;20.80;99.90;;;;;;5031220;28;19913;-87
2021/01/04 12:12:29;;;;;;;;;;;20.70;99.90;;;;;;5012197;28;20608;-87
2021/01/04 12:14:56;;;;;;;;;;;20.80;99.90;;;;;;5011366;28;19931;-87
2021/01/04 12:17:23;;;;;;;;;;;20.80;99.90;;;;;;5024003;28;19917;-88
2021/01/04 12:19:49;;;;;;;;;;;20.80;99.90;;;;;;4997410;28;19917;-86
2021/01/04 12:22:16;;;;;;;;;;;20.70;99.90;;;;;;5026123;28;19918;-86
2021/01/04 12:24:49;;;;;;;;;;;20.70;99.90;;;;;;5014810;28;19945;-86
2021/01/04 12:27:17;;;;;;;;;;;20.60;99.90;;;;;;5020066;28;19917;-86
2021/01/04 12:29:44;;;;;;;;;;;20.60;99.90;;;;;;5014734;28;19925;-87
2021/01/04 12:32:15;;;;;;;;;;;20.60;99.90;;;;;;5017420;28;20040;-86
2021/01/04 12:34:42;;;;;;;;;;;20.60;99.90;;;;;;5015406;28;20375;-84
2021/01/04 12:37:09;;;;;;;;;;;20.50;99.90;;;;;;5028829;28;19961;-87
2021/01/04 12:39:36;;;;;;;;;;;20.50;99.90;;;;;;5008956;28;19913;-84
2021/01/04 12:42:04;;;;;;;;;;;20.40;99.90;;;;;;5016471;28;19917;-86
2021/01/04 12:44:30;;;;;;;;;;;20.30;99.90;;;;;;5032996;28;19913;-88
2021/01/04 12:46:58;;;;;;;;;;;20.30;99.90;;;;;;5032179;28;19921;-86
2021/01/04 12:49:25;;;;;;;;;;;20.30;99.90;;;;;;5014337;28;20008;-85
2021/01/04 12:51:53;;;;;;;;;;;20.30;99.90;;;;;;5031941;28;19913;-86
2021/01/04 12:54:28;;;;;;;;;;;20.20;99.90;;;;;;5018165;28;20303;-83
2021/01/04 12:56:56;;;;;;;;;;;20.20;99.90;;;;;;5036237;28;19975;-84
2021/01/04 12:59:26;;;;;;;;;;;20.20;99.90;;;;;;5035795;28;19917;-85
2021/01/04 13:01:55;;;;;;;;;;;20.20;99.90;;;;;;5036514;28;19923;-86
2021/01/04 13:04:26;;;;;;;;;;;20.20;99.90;;;;;;5036723;28;19920;-85
2021/01/04 13:06:56;;;;;;;;;;;20.10;99.90;;;;;;5018762;28;19940;-86
2021/01/04 13:09:23;;;;;;;;;;;20.20;99.90;;;;;;5037012;28;20016;-86
2021/01/04 13:11:50;;;;;;;;;;;20.20;99.90;;;;;;5036905;28;19913;-86
2021/01/04 13:14:18;;;;;;;;;;;20.30;99.90;;;;;;5036165;28;19917;-86
2021/01/04 13:16:45;;;;;;;;;;;20.30;99.90;;;;;;5019233;28;19909;-86
2021/01/04 13:19:12;;;;;;;;;;;20.30;99.90;;;;;;5018934;28;19959;-86
2021/01/04 13:21:39;;;;;;;;;;;20.30;99.90;;;;;;5035689;28;19913;-86
2021/01/04 13:24:07;;;;;;;;;;;20.40;99.90;;;;;;5034804;28;19988;-86
2021/01/04 13:26:48;;;;;;;;;;;20.40;99.90;;;;;;5018919;28;19948;-86
2021/01/04 13:29:15;;;;;;;;;;;20.40;99.90;;;;;;5036474;28;19921;-86
2021/01/04 13:31:42;;;;;;;;;;;20.40;99.90;;;;;;5036864;28;19909;-86
2021/01/04 13:34:09;;;;;;;;;;;20.30;99.90;;;;;;5037376;28;19916;-86
2021/01/04 13:36:36;;;;;;;;;;;20.30;99.90;;;;;;5037214;28;20279;-85
2021/01/04 13:39:04;;;;;;;;;;;20.20;99.90;;;;;;5036882;28;19925;-87
2021/01/04 13:41:30;;;;;;;;;;;20.20;99.90;;;;;;5040203;28;19920;-85
2021/01/04 13:43:57;;;;;;;;;;;20.10;99.90;;;;;;5050085;28;19955;-84
2021/01/04 13:46:25;;;;;;;;;;;20.10;99.90;;;;;;5048139;28;20012;-84
2021/01/04 13:48:52;;;;;;;;;;;20.10;99.90;;;;;;5038092;28;19917;-86
2021/01/04 13:51:18;;;;;;;;;;;20.10;99.90;;;;;;5035766;28;19910;-86
2021/01/04 13:53:45;;;;;;;;;;;20.00;99.90;;;;;;5035464;28;19936;-88
2021/01/04 13:56:12;;;;;;;;;;;20.00;99.90;;;;;;5035634;28;19913;-85
2021/01/04 13:58:39;;;;;;;;;;;20.00;99.90;;;;;;5035157;28;20380;-86
2021/01/04 14:01:06;;;;;;;;;;;19.90;99.90;;;;;;5035339;28;20449;-86
2021/01/04 14:03:33;;;;;;;;;;;19.90;99.90;;;;;;5034903;28;19999;-85
2021/01/04 14:06:00;;;;;;;;;;;20.00;99.90;;;;;;5035108;28;19978;-86
2021/01/04 14:08:26;;;;;;;;;;;20.00;99.90;;;;;;5034619;28;20375;-86
2021/01/04 14:10:53;;;;;;;;;;;19.90;99.90;;;;;;5015727;28;20398;-86
2021/01/04 14:13:20;;;;;;;;;;;19.90;99.90;;;;;;5034537;28;19913;-85
2021/01/04 14:15:47;;;;;;;;;;;19.90;99.90;;;;;;5033301;28;19914;-86
2021/01/04 14:18:15;;;;;;;;;;;19.90;99.90;;;;;;5017792;28;19924;-87
2021/01/04 14:20:42;;;;;;;;;;;20.00;99.90;;;;;;5035113;28;19913;-88
2021/01/04 14:23:08;;;;;;;;;;;20.00;99.90;;;;;;5034945;28;19917;-87
2021/01/04 14:25:35;;;;;;;;;;;20.10;99.90;;;;;;5016778;28;20004;-86
2021/01/04 14:28:02;;;;;;;;;;;20.00;99.90;;;;;;5017040;28;19928;-86
2021/01/04 14:30:28;;;;;;;;;;;20.10;99.90;;;;;;5035033;28;19936;-86
2021/01/04 14:32:55;;;;;;;;;;;20.10;99.90;;;;;;5016921;28;19917;-88
2021/01/04 14:35:22;;;;;;;;;;;20.00;99.90;;;;;;5017293;28;19909;-86
2021/01/04 14:37:49;;;;;;;;;;;20.00;99.90;;;;;;5034763;28;19963;-86
2021/01/04 14:40:15;;;;;;;;;;;20.00;99.90;;;;;;5016240;28;19920;-86
2021/01/04 14:42:42;;;;;;;;;;;20.10;99.90;;;;;;5016575;28;20016;-86
2021/01/04 14:45:09;;;;;;;;;;;20.20;99.90;;;;;;5034984;28;20442;-86
2021/01/04 14:47:36;;;;;;;;;;;20.30;99.90;;;;;;5034483;28;19963;-87
2021/01/04 14:50:06;;;;;;;;;;;20.30;99.90;;;;;;5033646;28;19921;-87
2021/01/04 14:52:33;;;;;;;;;;;20.40;99.90;;;;;;5034119;28;19978;-87
2021/01/04 14:54:59;;;;;;;;;;;20.40;99.90;;;;;;5022849;28;19935;-86
2021/01/04 14:57:26;;;;;;;;;;;20.40;99.90;;;;;;5034458;28;19920;-87
2021/01/04 14:59:53;;;;;;;;;;;20.40;99.90;;;;;;5034014;28;19920;-87
2021/01/04 15:02:19;;;;;;;;;;;20.50;99.90;;;;;;5033889;28;19932;-85
2021/01/04 15:04:47;;;;;;;;;;;20.50;99.90;;;;;;5034384;28;20390;-86
2021/01/04 15:07:16;;;;;;;;;;;20.60;99.90;;;;;;5016386;28;19963;-85
2021/01/04 15:09:47;;;;;;;;;;;20.50;99.90;;;;;;5033652;28;19921;-85
2021/01/04 15:12:15;;;;;;;;;;;20.60;99.90;;;;;;5037955;28;20294;-85
2021/01/04 15:14:41;;;;;;;;;;;20.70;99.90;;;;;;5046248;28;19913;-86
2021/01/04 15:17:09;;;;;;;;;;;20.80;99.90;;;;;;5031990;28;20004;-86
2021/01/04 15:19:36;;;;;;;;;;;20.80;99.90;;;;;;5015499;28;19913;-86